Archival Weather

Heathrow

London, United Kingdom (EGLL)

Report from: Wednesday, December 6, 2023 5:50 PM GMT
Current time: Saturday, March 2, 2024 9:26 AM GMT

Current weather – Weather history – Daily summaries
Weather forecast

Temperature2.0°C (35.6°F)
Wind chill-1.2°C (29.9°F)
Dew point1.0°C (33.8°F)
Winds 6 kts (3.1 m/s, 6.9 mph) East (90°)
Visibility6.2 mi. (10 km)
Clouds Sky clear
Altimeter30.03 in.Hg (1017 mB)
Relative humidity93 %
Density altitude-1,611 ft. (-491 m)
Remarks Fully automated report
Corrected report
No clouds detected
No significant changes expected in the next two hours
Flight conditions Visual Meteorological Conditions
Raw dataCOR EGLL 061750Z AUTO 09006KT 9999 NCD 02/01 Q1017 NOSIG
An error has occurred. This application may no longer respond until reloaded. Reload 🗙